Time;durP1;ratioP1;P1;durP2;ratioP2;P2;SDS_P1;SDS_P2;PMS_P1;PMS_P2;Temp;Humidity;BMP_temperature;BMP_pressure;BME280_temperature;BME280_humidity;BME280_pressure;Samples;Min_cycle;Max_cycle;Signal;HPM_P1;HPM_P2
2023/01/17 00:02:17;;;;;;;11.40;3.35;;;;;;;1.31;100.00;98452.75;5050062;28;20123;-76
2023/01/17 00:10:13;;;;;;;5.65;2.85;;;;;;;1.32;100.00;98451.03;5051082;28;19923;-76
2023/01/17 00:12:44;;;;;;;6.78;2.92;;;;;;;1.26;100.00;98452.00;5052424;28;20013;-76
2023/01/17 00:15:09;;;;;;;5.80;3.13;;;;;;;1.17;100.00;98455.63;5051968;28;20036;-76
2023/01/17 00:17:35;;;;;;;6.15;3.40;;;;;;;1.06;100.00;98449.06;5051488;28;20449;-76
2023/01/17 01:34:57;;;;;;;;;;;;;;;0.30;100.00;98580.56;5054763;28;20031;-75
2023/01/17 01:37:22;;;;;;;4.30;3.70;;;;;;;0.15;100.00;98573.16;5054868;28;19999;-75
2023/01/17 01:39:47;;;;;;;5.85;4.25;;;;;;;0.01;100.00;98568.28;5054968;28;20028;-75
2023/01/17 01:42:14;;;;;;;5.82;5.22;;;;;;;0.02;100.00;98592.16;5054069;28;20446;-75
2023/01/17 01:44:50;;;;;;;7.45;5.20;;;;;;;-0.11;100.00;98591.53;5055117;28;20045;-75
2023/01/17 01:47:29;;;;;;;10.35;5.65;;;;;;;-0.09;100.00;98610.28;5053848;28;20029;-75
2023/01/17 01:49:57;;;;;;;7.50;6.28;;;;;;;-0.14;100.00;98612.06;5054930;28;20024;-75
2023/01/17 01:52:25;;;;;;;7.72;5.88;;;;;;;-0.23;100.00;98610.47;5054503;28;20029;-75
2023/01/17 01:54:50;;;;;;;7.30;5.88;;;;;;;-0.20;100.00;98627.50;5052623;28;20158;-75
2023/01/17 01:57:19;;;;;;;9.43;5.43;;;;;;;-0.27;100.00;98622.47;5054519;28;20104;-76
2023/01/17 01:59:53;;;;;;;7.28;5.47;;;;;;;-0.13;100.00;98629.09;5052603;28;20111;-75
2023/01/17 02:02:18;;;;;;;8.27;5.40;;;;;;;-0.05;100.00;98640.09;5043182;28;20061;-75
2023/01/17 02:04:44;;;;;;;10.23;5.97;;;;;;;0.02;100.00;98639.13;5053622;28;20056;-75
2023/01/17 02:07:19;;;;;;;7.70;5.38;;;;;;;0.06;100.00;98635.63;5053866;28;20032;-75
2023/01/17 02:09:45;;;;;;;7.63;5.72;;;;;;;0.08;100.00;98631.34;5050396;28;20036;-75
2023/01/17 02:12:11;;;;;;;8.45;5.53;;;;;;;0.09;100.00;98630.44;5053211;28;20029;-75
2023/01/17 02:14:37;;;;;;;8.13;5.35;;;;;;;0.11;100.00;98626.16;5053997;28;20020;-75
2023/01/17 02:17:35;;;;;;;9.52;5.13;;;;;;;0.22;100.00;98657.56;5053353;28;20021;-75
2023/01/17 02:20:32;;;;;;;9.52;4.15;;;;;;;0.27;100.00;98661.78;5051487;28;20049;-75
2023/01/17 02:23:12;;;;;;;8.07;4.10;;;;;;;0.29;100.00;98662.59;5052896;28;20159;-75
2023/01/17 02:26:09;;;;;;;6.95;2.95;;;;;;;0.29;100.00;98662.59;5052193;28;20523;-75
2023/01/17 02:29:16;;;;;;;10.07;2.53;;;;;;;0.28;100.00;98668.59;5044255;28;20074;-75
2023/01/17 02:31:48;;;;;;;7.65;1.33;;;;;;;0.04;100.00;98677.53;5053942;28;20025;-75
2023/01/17 02:34:36;;;;;;;4.60;1.60;;;;;;;-0.32;100.00;98680.63;5053481;28;20060;-75
2023/01/17 02:37:21;;;;;;;5.00;1.20;;;;;;;-0.47;100.00;98691.06;5052982;28;20021;-75
2023/01/17 02:40:05;;;;;;;6.65;1.00;;;;;;;-0.62;100.00;98676.75;5054064;28;20044;-76
2023/01/17 02:42:37;;;;;;;;;;;;;;;-0.64;100.00;98669.97;5053789;28;20040;-76
2023/01/17 02:45:03;;;;;;;2.50;0.50;;;;;;;-0.67;100.00;98654.66;5066353;28;19913;-76
2023/01/17 02:47:30;;;;;;;3.47;0.93;;;;;;;-0.69;100.00;98630.78;5053313;28;20035;-76
2023/01/17 02:50:29;;;;;;;3.72;0.50;;;;;;;-0.79;100.00;98633.44;5053503;28;20017;-76
2023/01/17 02:53:10;;;;;;;3.17;0.80;;;;;;;-0.63;100.00;98658.84;5048711;28;20033;-75
2023/01/17 02:56:04;;;;;;;3.28;0.65;;;;;;;-0.68;100.00;98652.97;5053642;28;20396;-76
2023/01/17 02:58:35;;;;;;;4.10;0.53;;;;;;;-0.72;100.00;98675.16;5066941;28;20112;-76
2023/01/17 03:01:09;;;;;;;6.57;0.60;;;;;;;-0.79;100.00;98682.06;5053330;28;20275;-76
2023/01/17 03:03:46;;;;;;;2.53;0.50;;;;;;;-0.85;100.00;98687.28;5067644;28;20017;-75
2023/01/17 03:06:18;;;;;;;5.35;0.65;;;;;;;-0.93;100.00;98690.78;5051859;28;20108;-75
2023/01/17 03:08:47;;;;;;;1.90;0.60;;;;;;;-0.97;100.00;98700.19;5058319;28;20047;-76
2023/01/17 03:11:13;;;;;;;6.15;0.70;;;;;;;-0.99;100.00;98696.81;5060815;28;20029;-76
2023/01/17 03:13:40;;;;;;;2.45;0.60;;;;;;;-1.03;100.00;98706.22;5052668;28;20029;-75
2023/01/17 03:16:10;;;;;;;4.03;0.98;;;;;;;-1.13;100.00;98691.84;5053344;28;20017;-75
2023/01/17 03:18:36;;;;;;;2.97;1.10;;;;;;;-1.02;100.00;98707.91;5052370;28;20031;-75
2023/01/17 03:21:02;;;;;;;2.90;0.90;;;;;;;-1.01;100.00;98703.66;5052889;28;20021;-75
2023/01/17 03:23:27;;;;;;;4.32;0.82;;;;;;;-1.03;100.00;98703.66;5052906;28;20106;-75
2023/01/17 03:25:52;;;;;;;1.98;0.90;;;;;;;-1.04;100.00;98714.78;5052338;28;20028;-75
2023/01/17 03:28:18;;;;;;;2.35;0.85;;;;;;;-1.11;100.00;98694.38;5052886;28;20025;-75
2023/01/17 03:30:43;;;;;;;8.52;1.17;;;;;;;-1.10;100.00;98704.59;5056265;28;20552;-75
2023/01/17 03:33:08;;;;;;;4.35;1.30;;;;;;;-1.10;100.00;98703.75;5062846;28;20025;-75
2023/01/17 03:35:34;;;;;;;4.88;1.38;;;;;;;-1.08;100.00;98700.34;5052644;28;20021;-75
2023/01/17 03:37:59;;;;;;;4.30;1.30;;;;;;;-1.06;100.00;98696.03;5052950;28;20036;-75
2023/01/17 03:40:24;;;;;;;6.78;1.38;;;;;;;-1.06;100.00;98702.84;5051766;28;20028;-75
2023/01/17 03:42:50;;;;;;;3.13;1.17;;;;;;;-1.07;100.00;98707.13;5052887;28;20037;-75
2023/01/17 03:45:15;;;;;;;5.00;1.73;;;;;;;-1.17;100.00;98694.47;5052443;28;20366;-75
2023/01/17 03:47:41;;;;;;;5.07;1.35;;;;;;;-1.08;100.00;98713.13;5052050;28;20060;-75
2023/01/17 03:50:07;;;;;;;6.05;1.80;;;;;;;-1.08;100.00;98714.81;5052721;28;20059;-75
2023/01/17 03:52:32;;;;;;;4.38;1.67;;;;;;;-1.06;100.00;98721.59;5051924;28;20033;-75
2023/01/17 03:54:57;;;;;;;6.43;2.00;;;;;;;-1.07;100.00;98712.25;5051290;28;20041;-74
2023/01/17 03:57:23;;;;;;;7.70;2.60;;;;;;;-1.15;100.00;98701.22;5052320;28;20104;-75
2023/01/17 03:59:48;;;;;;;7.65;2.47;;;;;;;-1.09;100.00;98711.41;5051965;28;20384;-75
2023/01/17 04:02:13;;;;;;;10.95;2.58;;;;;;;-1.13;100.00;98707.19;5050824;28;20021;-75
2023/01/17 04:04:39;;;;;;;8.30;2.90;;;;;;;-1.14;100.00;98702.09;5051447;28;20082;-74
2023/01/17 04:07:04;;;;;;;11.32;3.97;;;;;;;-1.12;100.00;98708.88;5049771;28;20048;-75
2023/01/17 04:09:32;;;;;;;8.80;2.95;;;;;;;-1.12;100.00;98700.34;5049837;28;20484;-75
2023/01/17 04:11:58;;;;;;;16.27;3.60;;;;;;;-1.12;100.00;98696.09;5051945;28;20361;-75
2023/01/17 04:14:24;;;;;;;8.70;3.30;;;;;;;-1.03;100.00;98711.34;5051263;28;20053;-75
2023/01/17 04:16:49;;;;;;;5.10;3.00;;;;;;;-1.12;100.00;98695.25;5047614;28;20064;-75
2023/01/17 04:19:15;;;;;;;9.75;3.05;;;;;;;-1.23;100.00;98692.81;5050950;28;20094;-75
2023/01/17 04:21:40;;;;;;;6.10;3.22;;;;;;;-1.11;100.00;98717.38;5051031;28;20469;-75
2023/01/17 04:24:06;;;;;;;7.60;2.78;;;;;;;-1.15;100.00;98710.63;5050576;28;20476;-74
2023/01/17 04:26:31;;;;;;;8.13;3.10;;;;;;;-1.27;100.00;98688.59;5051636;28;20043;-75
2023/01/17 04:28:56;;;;;;;9.90;2.72;;;;;;;-1.20;100.00;98708.13;5050038;28;20037;-75
2023/01/17 04:31:21;;;;;;;7.93;2.70;;;;;;;-1.21;100.00;98704.72;5051846;28;20479;-74
2023/01/17 04:33:47;;;;;;;6.50;2.92;;;;;;;-1.27;100.00;98691.16;5051731;28;20021;-75
2023/01/17 04:36:12;;;;;;;5.50;2.65;;;;;;;-1.17;100.00;98709.81;5049733;28;20423;-75
2023/01/17 04:38:37;;;;;;;7.15;2.40;;;;;;;-1.22;100.00;98704.72;5049765;28;20064;-75
2023/01/17 04:41:03;;;;;;;6.55;2.45;;;;;;;-1.21;100.00;98702.16;5046473;28;20057;-75
2023/01/17 04:43:28;;;;;;;5.50;2.00;;;;;;;-1.26;100.00;98696.25;5039777;28;20024;-75
2023/01/17 04:45:55;;;;;;;10.52;2.28;;;;;;;-1.24;100.00;98699.63;5051241;28;20036;-75
2023/01/17 04:48:20;;;;;;;9.07;2.42;;;;;;;-1.30;100.00;98697.13;5050966;28;20435;-75
2023/01/17 04:50:45;;;;;;;5.97;2.30;;;;;;;-1.29;100.00;98696.28;5050089;28;20021;-75
2023/01/17 04:53:11;;;;;;;10.82;2.95;;;;;;;-1.19;100.00;98715.75;5048704;28;20060;-75
2023/01/17 04:55:36;;;;;;;11.93;3.92;;;;;;;-1.15;100.00;98716.56;5049536;28;20485;-75
2023/01/17 04:58:01;;;;;;;12.48;4.28;;;;;;;-1.17;100.00;98713.22;5049734;28;20104;-75
2023/01/17 05:00:27;;;;;;;18.85;5.30;;;;;;;-1.15;100.00;98719.13;5050599;28;20051;-75
2023/01/17 05:02:52;;;;;;;18.65;5.65;;;;;;;-1.16;100.00;98720.00;5050942;28;20029;-75
2023/01/17 05:05:17;;;;;;;15.52;7.05;;;;;;;-1.17;100.00;98712.38;5050572;28;20488;-75
2023/01/17 05:07:43;;;;;;;23.27;7.75;;;;;;;-1.17;100.00;98714.91;5050316;28;20059;-75
2023/01/17 05:10:09;;;;;;;22.70;8.88;;;;;;;-1.23;100.00;98711.56;5051450;28;20021;-75
2023/01/17 05:12:34;;;;;;;25.77;9.32;;;;;;;-1.16;100.00;98721.72;5048452;28;20028;-75
2023/01/17 05:14:59;;;;;;;20.92;10.43;;;;;;;-1.19;100.00;98723.44;5051452;28;20021;-75
2023/01/17 05:17:25;;;;;;;28.77;10.95;;;;;;;-1.26;100.00;98706.47;5061438;28;20021;-75
2023/01/17 05:19:51;;;;;;;29.10;11.00;;;;;;;-1.19;100.00;98718.31;5051004;28;20453;-75
2023/01/17 05:22:16;;;;;;;45.25;12.20;;;;;;;-1.19;100.00;98715.75;5050958;28;20028;-75
2023/01/17 05:24:47;;;;;;;29.13;11.65;;;;;;;-1.18;100.00;98719.16;5050718;28;20578;-75
2023/01/17 05:27:13;;;;;;;30.75;11.68;;;;;;;-1.29;100.00;98709.06;5050481;28;20033;-75
2023/01/17 05:29:39;;;;;;;29.60;11.73;;;;;;;-1.31;100.00;98721.03;5052994;28;20075;-74
2023/01/17 05:32:04;;;;;;;31.65;12.00;;;;;;;-1.34;100.00;98720.16;5051371;28;20120;-74
2023/01/17 05:34:30;;;;;;;37.33;11.73;;;;;;;-1.35;100.00;98728.72;5053975;28;20017;-74
2023/01/17 05:36:55;;;;;;;32.03;11.43;;;;;;;-1.50;100.00;98714.38;5055005;28;20029;-74
2023/01/17 05:39:21;;;;;;;29.30;11.15;;;;;;;-1.45;100.00;98733.06;5052479;28;20028;-75
2023/01/17 05:41:46;;;;;;;28.58;10.70;;;;;;;-1.47;100.00;98739.91;5055219;28;20025;-75
2023/01/17 05:44:13;;;;;;;27.27;10.02;;;;;;;-1.61;100.00;98727.22;5054568;28;20017;-74
2023/01/17 05:46:39;;;;;;;23.92;9.65;;;;;;;-1.52;100.00;98741.66;5054567;28;20096;-75
2023/01/17 05:49:04;;;;;;;22.45;8.82;;;;;;;-1.60;100.00;98738.28;5054899;28;20064;-74
2023/01/17 05:51:29;;;;;;;22.35;8.80;;;;;;;-1.50;100.00;98750.16;5060954;28;20112;-74
2023/01/17 05:53:55;;;;;;;14.95;7.97;;;;;;;-1.54;100.00;98749.31;5061451;28;20057;-75
2023/01/17 05:56:21;;;;;;;20.50;8.57;;;;;;;-1.52;100.00;98756.97;5054244;28;20017;-74
2023/01/17 05:58:46;;;;;;;30.55;11.75;;;;;;;-1.56;100.00;98750.19;5055039;28;20032;-74
2023/01/17 06:01:11;;;;;;;26.17;11.60;;;;;;;-1.55;100.00;98749.34;5053619;28;20029;-74
2023/01/17 06:03:37;;;;;;;31.15;14.80;;;;;;;-1.58;100.00;98755.31;5054740;28;20469;-74
2023/01/17 06:06:02;;;;;;;36.50;15.43;;;;;;;-1.57;100.00;98751.03;5054329;28;20025;-74
2023/01/17 06:08:27;;;;;;;40.35;15.00;;;;;;;-1.60;100.00;98739.16;5044273;28;20401;-74
2023/01/17 06:10:52;;;;;;;32.97;15.80;;;;;;;-1.68;100.00;98736.66;5054337;28;20039;-74
2023/01/17 06:13:20;;;;;;;36.30;16.30;;;;;;;-1.63;100.00;98758.78;5054141;28;20024;-74
2023/01/17 06:15:46;;;;;;;32.13;15.23;;;;;;;-1.64;100.00;98752.78;5053783;28;20108;-74
2023/01/17 06:18:14;;;;;;;36.63;15.32;;;;;;;-1.65;100.00;98756.22;5053934;28;20116;-74
2023/01/17 06:20:40;;;;;;;38.03;17.45;;;;;;;-1.70;100.00;98758.81;5058868;28;20498;-74
2023/01/17 06:23:09;;;;;;;40.00;16.52;;;;;;;-1.87;100.00;98724.88;5063044;28;20439;-74
2023/01/17 06:25:39;;;;;;;37.28;16.80;;;;;;;-1.85;100.00;98728.28;5054323;28;20021;-74
2023/01/17 06:28:08;;;;;;;33.78;16.35;;;;;;;-1.82;100.00;98742.75;5054041;28;20017;-74
2023/01/17 06:30:34;;;;;;;39.65;17.20;;;;;;;-1.77;100.00;98757.16;5053144;28;20039;-74
2023/01/17 06:33:01;;;;;;;38.33;16.17;;;;;;;-1.77;100.00;98771.63;5053888;28;20381;-74
2023/01/17 06:35:27;;;;;;;36.35;16.35;;;;;;;-1.77;100.00;98756.31;5053458;28;20029;-74
2023/01/17 06:37:54;;;;;;;38.33;17.05;;;;;;;-1.78;100.00;98764.84;5067382;28;20021;-74
2023/01/17 06:40:20;;;;;;;31.65;15.82;;;;;;;-1.85;100.00;98756.38;5051585;28;20036;-74
2023/01/17 06:42:46;;;;;;;40.05;17.13;;;;;;;-1.93;100.00;98742.78;5053887;28;20036;-74
2023/01/17 06:45:11;;;;;;;35.75;15.75;;;;;;;-1.85;100.00;98760.63;5052675;28;20035;-74
2023/01/17 06:47:38;;;;;;;41.53;15.70;;;;;;;-1.85;100.00;98761.47;5052971;28;20027;-74
2023/01/17 06:50:04;;;;;;;29.55;15.88;;;;;;;-1.86;100.00;98762.34;5052945;28;20024;-74
2023/01/17 06:52:29;;;;;;;42.15;16.15;;;;;;;-1.89;100.00;98763.22;5051859;28;20041;-74
2023/01/17 06:54:54;;;;;;;36.17;15.68;;;;;;;-1.86;100.00;98776.78;5052715;28;20099;-74
2023/01/17 06:57:20;;;;;;;32.67;15.43;;;;;;;-1.89;100.00;98767.47;5052444;28;20021;-74
2023/01/17 06:59:45;;;;;;;40.03;15.35;;;;;;;-1.89;100.00;98764.91;5053598;28;20021;-74
2023/01/17 07:02:10;;;;;;;37.03;15.57;;;;;;;-1.92;100.00;98762.38;5053352;28;20037;-74
2023/01/17 07:04:36;;;;;;;38.25;15.88;;;;;;;-2.00;100.00;98759.84;5052744;28;20116;-74
2023/01/17 07:07:01;;;;;;;35.75;16.67;;;;;;;-1.98;100.00;98772.63;5051062;28;20039;-74
2023/01/17 07:09:26;;;;;;;35.95;16.02;;;;;;;-2.02;100.00;98760.75;5047329;28;20029;-74
2023/01/17 07:11:58;;;;;;;37.50;16.45;;;;;;;-2.02;100.00;98765.84;5052537;28;20032;-74
2023/01/17 07:14:24;;;;;;;36.80;15.57;;;;;;;-2.00;100.00;98769.22;5053170;28;20100;-74
2023/01/17 07:16:49;;;;;;;37.72;15.50;;;;;;;-1.99;100.00;98776.06;5053355;28;20151;-74
2023/01/17 07:19:14;;;;;;;44.38;15.85;;;;;;;-2.00;100.00;98777.72;5051841;28;20484;-74
2023/01/17 07:21:40;;;;;;;33.85;15.30;;;;;;;-2.00;100.00;98769.22;5053290;28;20024;-74
2023/01/17 07:24:05;;;;;;;32.78;16.42;;;;;;;-2.08;100.00;98761.63;5052789;28;20094;-74
2023/01/17 07:26:32;;;;;;;30.38;15.40;;;;;;;-2.07;100.00;98775.22;5052111;28;20033;-74
2023/01/17 07:28:57;;;;;;;38.95;15.23;;;;;;;-2.09;100.00;98777.81;5053136;28;20021;-74
2023/01/17 07:31:22;;;;;;;40.33;16.58;;;;;;;-2.23;100.00;98760.00;5052536;28;20029;-74
2023/01/17 07:33:48;;;;;;;40.65;16.33;;;;;;;-2.10;100.00;98788.84;5052012;28;20064;-74
2023/01/17 07:36:13;;;;;;;36.70;16.08;;;;;;;-2.14;100.00;98785.47;5052419;28;20032;-74
2023/01/17 07:38:39;;;;;;;40.63;16.70;;;;;;;-2.18;100.00;98777.84;5052137;28;20028;-74
2023/01/17 07:41:04;;;;;;;34.00;16.73;;;;;;;-2.12;100.00;98791.44;5052528;28;20083;-74
2023/01/17 07:43:29;;;;;;;41.72;17.75;;;;;;;-2.25;100.00;98769.38;5052666;28;20029;-74
2023/01/17 07:45:55;;;;;;;37.03;16.63;;;;;;;-2.14;100.00;98793.13;5052057;28;20021;-74
2023/01/17 07:48:23;;;;;;;37.50;17.08;;;;;;;-2.12;100.00;98795.69;5052541;28;20415;-74
2023/01/17 07:50:56;;;;;;;36.47;17.02;;;;;;;-2.14;100.00;98793.13;5053291;28;20021;-74
2023/01/17 07:53:26;;;;;;;41.83;19.40;;;;;;;-2.13;100.00;98793.97;5063296;28;20043;-74
2023/01/17 07:55:51;;;;;;;44.03;17.90;;;;;;;-2.13;100.00;98797.41;5052364;28;20098;-74
2023/01/17 07:58:17;;;;;;;39.38;18.38;;;;;;;-2.22;100.00;98777.03;5051342;28;20033;-74
2023/01/17 08:00:43;;;;;;;38.42;17.70;;;;;;;-2.12;100.00;98790.59;5050808;28;20104;-74
2023/01/17 08:03:12;;;;;;;41.17;19.05;;;;;;;-2.09;100.00;98794.81;5046638;28;20064;-74
2023/01/17 08:05:38;;;;;;;43.65;19.55;;;;;;;-2.09;100.00;98785.47;5044173;28;20091;-74
2023/01/17 08:08:03;;;;;;;41.72;19.70;;;;;;;-2.06;100.00;98793.13;5043317;28;20488;-74
2023/01/17 08:10:29;;;;;;;42.08;20.25;;;;;;;-2.05;100.00;98793.97;5051858;28;20029;-74
2023/01/17 08:12:54;;;;;;;46.50;19.90;;;;;;;-2.01;100.00;98798.19;5051927;28;20033;-74
2023/01/17 08:15:19;;;;;;;50.50;20.70;;;;;;;-1.99;100.00;98779.44;5051086;28;20028;-74
2023/01/17 08:18:05;;;;;;;47.90;21.20;;;;;;;-1.95;100.00;98787.94;5052450;28;20074;-74
2023/01/17 08:20:30;;;;;;;49.25;20.85;;;;;;;-1.94;100.00;98787.06;5044859;28;20496;-74
2023/01/17 08:22:56;;;;;;;51.72;21.98;;;;;;;-1.94;100.00;98787.06;5051350;28;20099;-74
2023/01/17 08:25:23;;;;;;;49.38;21.45;;;;;;;-1.87;100.00;98791.28;5050901;28;20112;-74
2023/01/17 08:27:48;;;;;;;50.03;21.90;;;;;;;-1.88;100.00;98794.69;5051131;28;20025;-74
2023/01/17 08:30:13;;;;;;;51.90;23.42;;;;;;;-1.94;100.00;98787.91;5050828;28;20036;-74
2023/01/17 08:32:39;;;;;;;48.13;22.20;;;;;;;-1.88;100.00;98800.66;5052063;28;20029;-74
2023/01/17 08:35:06;;;;;;;57.28;25.13;;;;;;;-1.94;100.00;98802.41;5050987;28;20025;-74
2023/01/17 08:37:31;;;;;;;52.55;23.38;;;;;;;-1.88;100.00;98805.75;5051650;28;20027;-74
2023/01/17 08:39:56;;;;;;;50.58;22.02;;;;;;;-1.91;100.00;98810.88;5051946;28;20037;-74
2023/01/17 08:42:22;;;;;;;60.60;25.00;;;;;;;-1.89;100.00;98813.44;5050426;28;20013;-74
2023/01/17 08:44:47;;;;;;;55.33;23.95;;;;;;;-1.94;100.00;98805.78;5051315;28;20128;-74
2023/01/17 08:47:12;;;;;;;59.40;24.27;;;;;;;-1.88;100.00;98815.13;5051192;28;20021;-74
2023/01/17 08:49:37;;;;;;;62.80;23.38;;;;;;;-1.86;100.00;98818.53;5051223;28;20440;-74
2023/01/17 08:52:04;;;;;;;55.50;23.48;;;;;;;-1.85;100.00;98811.72;5051941;28;20028;-74
2023/01/17 08:54:29;;;;;;;60.85;25.02;;;;;;;-1.86;100.00;98813.44;5050764;28;20029;-74
2023/01/17 08:56:54;;;;;;;64.95;26.20;;;;;;;-1.89;100.00;98798.13;5050788;28;20043;-74
2023/01/17 08:59:21;;;;;;;61.20;25.45;;;;;;;-1.93;100.00;98788.75;5051307;28;20128;-74
2023/01/17 09:01:47;;;;;;;56.03;25.92;;;;;;;-1.77;100.00;98809.94;5051926;28;20052;-74
2023/01/17 09:04:12;;;;;;;63.67;26.90;;;;;;;-1.78;100.00;98801.44;5051288;28;20040;-74
2023/01/17 09:06:41;;;;;;;63.38;27.10;;;;;;;-1.70;100.00;98804.81;5055304;28;20040;-74
2023/01/17 09:09:07;;;;;;;74.13;28.88;;;;;;;-1.63;100.00;98812.44;5048749;28;20028;-74
2023/01/17 09:11:33;;;;;;;72.07;28.50;;;;;;;-1.66;100.00;98805.63;5054645;28;20020;-74
2023/01/17 09:13:58;;;;;;;70.43;28.00;;;;;;;-1.54;100.00;98817.47;5055825;28;20729;-74
2023/01/17 09:16:24;;;;;;;79.93;30.08;;;;;;;-1.56;100.00;98808.97;5055117;28;20024;-74
2023/01/17 09:18:54;;;;;;;75.28;30.15;;;;;;;-1.46;100.00;98818.28;5053800;28;20028;-74
2023/01/17 09:21:19;;;;;;;76.13;29.73;;;;;;;-1.43;100.00;98813.13;5052869;28;20144;-74
2023/01/17 09:23:45;;;;;;;75.97;31.70;;;;;;;-1.51;100.00;98802.09;5054291;28;20108;-74
2023/01/17 09:26:20;;;;;;;80.00;31.58;;;;;;;-1.39;100.00;98813.97;5052549;28;20459;-74
2023/01/17 09:28:45;;;;;;;79.10;30.40;;;;;;;-1.38;100.00;98815.66;5053976;28;20033;-74
2023/01/17 09:31:10;;;;;;;79.63;31.65;;;;;;;-1.34;100.00;98823.28;5052903;28;20115;-74
2023/01/17 09:33:37;;;;;;;86.60;30.42;;;;;;;-1.34;100.00;98823.28;5054532;28;20036;-74
2023/01/17 09:36:04;;;;;;;80.07;29.73;;;;;;;-1.37;100.00;98818.22;5054272;28;20092;-74
2023/01/17 09:38:30;;;;;;;79.75;29.65;;;;;;;-1.72;100.00;98763.09;5054385;28;20029;-74
2023/01/17 09:40:56;;;;;;;74.45;29.92;;;;;;;-1.28;100.00;98823.22;5052626;28;20064;-74
2023/01/17 09:43:43;;;;;;;79.07;29.35;;;;;;;-1.31;100.00;98820.72;5061649;28;20067;-74
2023/01/17 09:46:21;;;;;;;76.05;28.63;;;;;;;-1.29;100.00;98818.97;5055620;28;20104;-74
2023/01/17 09:48:50;;;;;;;81.03;30.08;;;;;;;-1.25;100.00;98819.78;5061815;28;20031;-74
2023/01/17 09:51:25;;;;;;;79.70;30.05;;;;;;;-1.16;100.00;98826.56;5052800;28;20024;-74
2023/01/17 09:53:52;;;;;;;78.88;29.15;;;;;;;-1.17;100.00;98824.88;5046809;28;20396;-75
2023/01/17 09:56:29;;;;;;;81.22;29.33;;;;;;;-1.10;100.00;98836.75;5052387;28;20137;-74
2023/01/17 09:59:14;;;;;;;70.15;28.52;;;;;;;-1.10;100.00;98839.28;5054327;28;20112;-74
2023/01/17 10:01:52;;;;;;;74.78;27.63;;;;;;;-1.08;100.00;98838.44;5041719;28;20380;-74
2023/01/17 10:04:47;;;;;;;68.85;26.75;;;;;;;-1.05;100.00;98840.09;5053915;28;20158;-74
2023/01/17 10:07:34;;;;;;;69.63;26.05;;;;;;;-1.01;100.00;98834.94;5042005;28;20036;-74
2023/01/17 10:10:34;;;;;;;79.70;26.80;;;;;;;-1.19;100.00;98819.75;5053041;28;20524;-74
2023/01/17 10:13:24;;;;;;;65.65;23.85;;;;;;;-0.97;100.00;98846.00;5049606;28;20103;-74
2023/01/17 10:16:18;;;;;;;66.00;25.10;;;;;;;-0.94;100.00;98848.53;5053532;28;20040;-74
2023/01/17 10:18:49;;;;;;;;;;;;;;;-0.88;100.00;98851.03;5054267;28;20029;-74
2023/01/17 10:21:45;;;;;;;74.13;26.38;;;;;;;-0.75;100.00;98850.06;5052812;28;19924;-74
2023/01/17 10:24:57;;;;;;;78.22;28.55;;;;;;;-0.60;100.00;98845.63;5052630;28;20434;-76
2023/01/17 10:28:18;;;;;;;75.30;30.58;;;;;;;-0.62;100.00;98832.88;5052503;28;20025;-75
2023/01/17 10:30:49;;;;;;;81.05;31.17;;;;;;;-0.47;100.00;98835.25;5043893;28;20123;-76
2023/01/17 10:33:18;;;;;;;79.68;29.83;;;;;;;-0.38;100.00;98833.47;5055403;28;20063;-75
2023/01/17 10:35:54;;;;;;;85.65;31.45;;;;;;;-0.28;100.00;98840.16;5053079;28;20028;-75
2023/01/17 10:38:24;;;;;;;80.50;30.50;;;;;;;-0.22;100.00;98834.97;5052915;28;20750;-75
2023/01/17 10:40:58;;;;;;;91.00;33.35;;;;;;;-0.21;100.00;98835.81;5053628;28;20021;-75
2023/01/17 10:43:36;;;;;;;72.35;30.98;;;;;;;-0.17;100.00;98840.03;5051097;28;20025;-75
2023/01/17 10:46:01;;;;;;;87.38;32.50;;;;;;;-0.07;100.00;98836.50;5052641;28;20029;-75
2023/01/17 10:48:43;;;;;;;91.30;34.42;;;;;;;0.05;100.00;98845.75;5052452;28;20036;-75
2023/01/17 10:51:20;;;;;;;91.70;33.75;;;;;;;0.18;100.00;98854.97;5053481;28;20431;-76
2023/01/17 10:53:51;;;;;;;83.28;34.95;;;;;;;0.34;100.00;98861.59;5053393;28;20722;-76
2023/01/17 10:56:22;;;;;;;88.20;37.20;;;;;;;0.52;100.00;98849.38;5052442;28;20033;-75
2023/01/17 10:58:52;;;;;;;107.82;41.30;;;;;;;0.71;100.00;98850.78;5052886;28;20029;-75
2023/01/17 11:01:19;;;;;;;114.90;44.80;;;;;;;0.81;100.00;98847.19;5053086;28;20039;-75
2023/01/17 11:03:49;;;;;;;114.95;45.33;;;;;;;0.87;100.00;98841.97;5052500;28;20031;-75
2023/01/17 11:06:19;;;;;;;106.85;43.22;;;;;;;0.82;100.00;98841.22;5052694;28;20480;-75
2023/01/17 11:08:56;;;;;;;95.63;40.88;;;;;;;0.74;100.00;98837.06;5052002;28;20053;-75
2023/01/17 11:11:29;;;;;;;101.03;40.55;;;;;;;0.75;100.00;98844.72;5050353;28;20112;-75
2023/01/17 11:14:00;;;;;;;95.32;40.90;;;;;;;0.88;100.00;98845.38;5051190;28;20070;-75
2023/01/17 11:16:30;;;;;;;89.63;39.28;;;;;;;0.96;100.00;98822.19;5049270;28;20074;-75
2023/01/17 11:19:14;;;;;;;85.00;36.30;;;;;;;1.08;100.00;98821.94;5048344;28;20048;-75
2023/01/17 11:21:48;;;;;;;;;;;;;;;1.22;100.00;98832.00;5051231;28;21835;-75
2023/01/17 11:24:18;;;;;;;62.30;27.58;;;;;;;1.14;100.00;98825.28;5049613;28;19931;-75
2023/01/17 11:26:48;;;;;;;56.55;25.60;;;;;;;1.17;100.00;98824.38;5050650;28;20021;-75
2023/01/17 11:29:35;;;;;;;57.53;25.48;;;;;;;1.34;100.00;98824.94;5050538;28;20048;-76
2023/01/17 11:32:20;;;;;;;48.83;24.83;;;;;;;1.34;100.00;98826.63;5050269;28;20381;-76
2023/01/17 11:35:04;;;;;;;45.22;23.00;;;;;;;1.22;100.00;98827.72;5050236;28;20557;-76
2023/01/17 11:37:30;;;;;;;42.78;20.10;;;;;;;1.13;100.00;98820.16;5048123;28;20040;-76
2023/01/17 11:40:17;;;;;;;36.30;17.50;;;;;;;0.98;100.00;98817.84;5051267;28;20025;-76
2023/01/17 11:42:43;;;;;;;31.13;17.58;;;;;;;0.91;100.00;98820.53;5052498;28;20029;-76
2023/01/17 11:45:25;;;;;;;32.63;17.88;;;;;;;0.91;100.00;98820.53;5051345;28;20077;-76
2023/01/17 11:48:12;;;;;;;30.65;17.38;;;;;;;0.91;100.00;98820.53;5066812;28;20021;-76
2023/01/17 11:50:57;;;;;;;30.85;16.83;;;;;;;0.89;100.00;98814.59;5047447;28;20078;-76
2023/01/17 11:53:36;;;;;;;24.55;15.18;;;;;;;0.83;100.00;98807.00;5039706;28;20060;-76
2023/01/17 11:56:06;;;;;;;28.60;14.15;;;;;;;0.83;100.00;98812.13;5052262;28;20132;-77
2023/01/17 11:58:35;;;;;;;24.52;12.80;;;;;;;0.66;100.00;98804.69;5051639;28;20031;-75
2023/01/17 12:01:24;;;;;;;27.33;13.82;;;;;;;0.69;100.00;98809.78;5050602;28;20028;-76
2023/01/17 12:04:08;;;;;;;19.80;11.13;;;;;;;0.65;100.00;98803.03;5051420;28;20499;-75
2023/01/17 12:07:15;;;;;;;20.55;11.45;;;;;;;0.74;100.00;98803.72;5050633;28;20021;-76
2023/01/17 12:09:52;;;;;;;18.73;10.07;;;;;;;0.81;100.00;98808.72;5008657;28;20109;-76
2023/01/17 12:15:24;;;;;;;19.80;9.82;;;;;;;0.90;100.00;98810.28;5044543;28;20048;-76
2023/01/17 12:18:08;;;;;;;22.23;10.45;;;;;;;0.84;100.00;98795.84;5051937;28;20070;-76
2023/01/17 12:21:08;;;;;;;15.93;8.02;;;;;;;0.94;100.00;98811.94;5048304;28;20059;-76
2023/01/17 12:23:52;;;;;;;14.82;8.25;;;;;;;0.99;100.00;98807.59;5051958;28;20040;-76
2023/01/17 12:26:38;;;;;;;14.85;8.63;;;;;;;1.10;100.00;98808.22;5051607;28;20032;-76
2023/01/17 12:29:25;;;;;;;17.27;8.63;;;;;;;1.28;100.00;98808.78;5050987;28;20432;-76
2023/01/17 12:32:09;;;;;;;17.98;8.90;;;;;;;1.42;100.00;98801.66;5052223;28;20135;-76
2023/01/17 12:34:49;;;;;;;6.60;4.25;;;;;;;1.37;100.00;98799.19;5051268;28;20457;-76
2023/01/17 12:37:31;;;;;;;11.68;5.50;;;;;;;1.34;100.00;98790.69;5051799;28;20083;-76
2023/01/17 12:40:08;;;;;;;9.85;5.28;;;;;;;1.42;100.00;98799.09;5057330;28;20033;-76
2023/01/17 12:42:42;;;;;;;9.68;5.45;;;;;;;1.47;100.00;98794.75;5057592;28;20048;-76
2023/01/17 12:45:33;;;;;;;8.88;4.70;;;;;;;1.55;100.00;98792.84;5058307;28;20029;-76
2023/01/17 12:48:08;;;;;;;5.80;3.40;;;;;;;1.57;100.00;98788.53;5057750;28;20067;-76
2023/01/17 12:50:47;;;;;;;9.68;4.05;;;;;;;1.73;100.00;98793.34;5058668;28;20056;-76
2023/01/17 12:53:31;;;;;;;9.05;4.50;;;;;;;1.93;100.00;98791.25;5058152;28;20025;-76
2023/01/17 12:56:07;;;;;;;8.57;4.60;;;;;;;2.09;100.00;98782.31;5017777;28;20470;-76
2023/01/17 12:58:38;;;;;;;8.48;3.40;;;;;;;2.28;100.00;98787.88;5019072;28;20111;-76